Livingston, Iowa
Current Conditions -  °F | °C
As of 4:15 AM on Saturday 25 Oct 2014 (Local Time) from KTVK Reporting Station
Haze Haze  
Wind Chill: 48°   Ceiling: Unl
Heat Index: 48°   Visibility: 2mi
Dew Point: 48°   Wind: 3mph
Humidity: 100%   Direction: 240°WSW
Pressure: 30.01"   Gusts: NA
Location:  40.6341°N, 92.9239°W
Report Text: KTVK 250915Z AUTO 24003KT 2SM BR CLR 09/09 A3001 RMK AO2
Loading
Personal Weather Stations






























Interactive Weather Map
Tropical Storm Tracking
New forecast layout! Learn more

10-Day Weather Forecast

Advertisements
Track Severe Weather on mobile